Portada
METAR-TAF:

METAR-TAF

Aeropuertos :

Aeropuerto de Tánger-Ibn Battuta

Tánger, Marruecos

latitud: 35-44N, longitud: 005-54W, altitud: 19 m

Observación

El informe se hizo hace 33 minutos, a las 21:30 UTC
Viento 2 kt con dirección variable
Temperatura 16°C
Humedad 68%
Presión 1020 hPa
Visibilidad 10 km o más
sin nubes por debajo de 1500 m y sin presencia de cumulonimbus.

METAR: GMTT 162130Z VRB02KT CAVOK 16/10 Q1020 NOSIG

Hora: 23:03 (22:03 UTC)

Pronóstico

El informe se hizo hace 5 horas y 3 minutos, a las 17:00 UTC
Pronóstico válido del 16 a las 18 UTC al 17 a las 24 UTC
Viento 9 kt del norte-noroeste
Visibilidad 10 km o más
Escasas nubes a una altura de 1600 ft
Probabilidad 30% :
Temporalmente
del 17 a las 00 UTC al 17 a las 06 UTC
Visibilidad: 4000 m
neblina

TAF: GMTT 161700Z 1618/1724 34009KT 9999 FEW016 PROB30 TEMPO 1700/1706 4000 BR

Observaciones y pronósticos meteorológicos de más de 4000 aeropuertos (mensajes METAR y TAF).

Los puntos amarillos y rojos representan las estaciones disponibles.

Ponga el ratón en el punto deseado para ver el nombre de la estación.

Haga clic para ver las observaciones y los pronósticos meteorológicos.

Para cambiar el mapa : haga clic en los botones verdes con una cruz de color negro para hacer un zoom, en el botón verde con un guión para alejar o en las flechas verdes para mapas adyacentes.


METAR-TAF: